sensor_id;sensor_type;location;lat;lon;timestamp;P1;durP1;ratioP1;P2;durP2;ratioP2
48524;SDS011;34316;51.514;-0.178;2023-01-23T00:01:55;6.72;;;4.82;;
48524;SDS011;34316;51.514;-0.178;2023-01-23T00:03:56;6.25;;;4.05;;
48524;SDS011;34316;51.514;-0.178;2023-01-23T00:05:59;9.32;;;4.88;;
48524;SDS011;34316;51.514;-0.178;2023-01-23T00:08:02;6.88;;;4.18;;
48524;SDS011;34316;51.514;-0.178;2023-01-23T00:10:04;8.05;;;5.15;;
48524;SDS011;34316;51.514;-0.178;2023-01-23T00:12:06;5.63;;;3.72;;
48524;SDS011;34316;51.514;-0.178;2023-01-23T00:14:08;6.78;;;4.63;;
48524;SDS011;34316;51.514;-0.178;2023-01-23T00:16:12;11.18;;;4.90;;
48524;SDS011;34316;51.514;-0.178;2023-01-23T00:18:15;7.40;;;4.38;;
48524;SDS011;34316;51.514;-0.178;2023-01-23T00:20:17;8.07;;;4.30;;
48524;SDS011;34316;51.514;-0.178;2023-01-23T00:22:19;7.32;;;4.53;;
48524;SDS011;34316;51.514;-0.178;2023-01-23T00:24:21;6.50;;;4.45;;
48524;SDS011;34316;51.514;-0.178;2023-01-23T00:26:25;7.78;;;5.15;;
48524;SDS011;34316;51.514;-0.178;2023-01-23T00:30:29;6.72;;;4.93;;
48524;SDS011;34316;51.514;-0.178;2023-01-23T00:32:31;8.18;;;6.75;;
48524;SDS011;34316;51.514;-0.178;2023-01-23T00:34:33;7.65;;;5.43;;
48524;SDS011;34316;51.514;-0.178;2023-01-23T00:36:36;7.28;;;5.35;;
48524;SDS011;34316;51.514;-0.178;2023-01-23T00:38:39;8.57;;;5.38;;
48524;SDS011;34316;51.514;-0.178;2023-01-23T00:40:41;9.13;;;5.50;;
48524;SDS011;34316;51.514;-0.178;2023-01-23T00:42:43;7.45;;;5.00;;
48524;SDS011;34316;51.514;-0.178;2023-01-23T00:44:45;6.35;;;5.32;;
48524;SDS011;34316;51.514;-0.178;2023-01-23T00:46:47;6.78;;;5.40;;
48524;SDS011;34316;51.514;-0.178;2023-01-23T00:48:49;8.20;;;5.75;;
48524;SDS011;34316;51.514;-0.178;2023-01-23T00:50:51;7.90;;;5.60;;
48524;SDS011;34316;51.514;-0.178;2023-01-23T00:52:53;7.45;;;5.13;;
48524;SDS011;34316;51.514;-0.178;2023-01-23T00:54:54;7.05;;;5.80;;
48524;SDS011;34316;51.514;-0.178;2023-01-23T00:56:56;6.90;;;5.00;;
48524;SDS011;34316;51.514;-0.178;2023-01-23T00:58:58;6.57;;;4.85;;
48524;SDS011;34316;51.514;-0.178;2023-01-23T01:00:59;8.60;;;4.80;;
48524;SDS011;34316;51.514;-0.178;2023-01-23T01:03:01;7.07;;;5.03;;
48524;SDS011;34316;51.514;-0.178;2023-01-23T01:05:03;8.05;;;5.00;;
48524;SDS011;34316;51.514;-0.178;2023-01-23T01:07:05;7.15;;;4.97;;
48524;SDS011;34316;51.514;-0.178;2023-01-23T01:09:06;10.60;;;5.40;;
48524;SDS011;34316;51.514;-0.178;2023-01-23T01:11:08;6.05;;;4.82;;
48524;SDS011;34316;51.514;-0.178;2023-01-23T01:13:10;7.15;;;4.80;;
48524;SDS011;34316;51.514;-0.178;2023-01-23T01:15:12;5.95;;;4.15;;
48524;SDS011;34316;51.514;-0.178;2023-01-23T01:17:14;6.78;;;4.60;;
48524;SDS011;34316;51.514;-0.178;2023-01-23T01:19:16;7.40;;;4.70;;
48524;SDS011;34316;51.514;-0.178;2023-01-23T01:21:19;9.45;;;4.82;;
48524;SDS011;34316;51.514;-0.178;2023-01-23T01:23:21;6.30;;;4.10;;
48524;SDS011;34316;51.514;-0.178;2023-01-23T01:25:22;8.43;;;4.30;;
48524;SDS011;34316;51.514;-0.178;2023-01-23T01:27:24;8.07;;;4.13;;
48524;SDS011;34316;51.514;-0.178;2023-01-23T01:29:26;5.60;;;3.22;;
48524;SDS011;34316;51.514;-0.178;2023-01-23T01:31:28;5.45;;;3.15;;
48524;SDS011;34316;51.514;-0.178;2023-01-23T01:33:30;6.63;;;3.90;;
48524;SDS011;34316;51.514;-0.178;2023-01-23T01:35:31;5.53;;;3.72;;
48524;SDS011;34316;51.514;-0.178;2023-01-23T01:37:34;8.85;;;3.88;;
48524;SDS011;34316;51.514;-0.178;2023-01-23T01:39:36;12.73;;;7.78;;
48524;SDS011;34316;51.514;-0.178;2023-01-23T01:41:38;7.25;;;4.40;;
48524;SDS011;34316;51.514;-0.178;2023-01-23T01:43:39;8.57;;;3.30;;
48524;SDS011;34316;51.514;-0.178;2023-01-23T01:48:06;4.50;;;3.38;;
48524;SDS011;34316;51.514;-0.178;2023-01-23T01:50:07;5.53;;;3.40;;
48524;SDS011;34316;51.514;-0.178;2023-01-23T01:52:12;5.70;;;3.80;;
48524;SDS011;34316;51.514;-0.178;2023-01-23T01:56:36;8.60;;;3.83;;
48524;SDS011;34316;51.514;-0.178;2023-01-23T01:58:45;6.88;;;3.70;;
48524;SDS011;34316;51.514;-0.178;2023-01-23T02:00:48;9.75;;;4.50;;
48524;SDS011;34316;51.514;-0.178;2023-01-23T02:02:50;4.90;;;3.35;;
48524;SDS011;34316;51.514;-0.178;2023-01-23T02:04:58;6.35;;;3.80;;
48524;SDS011;34316;51.514;-0.178;2023-01-23T02:07:04;6.22;;;3.60;;
48524;SDS011;34316;51.514;-0.178;2023-01-23T02:09:23;5.25;;;3.75;;
48524;SDS011;34316;51.514;-0.178;2023-01-23T02:11:27;6.32;;;3.80;;
48524;SDS011;34316;51.514;-0.178;2023-01-23T02:13:30;7.28;;;3.88;;
48524;SDS011;34316;51.514;-0.178;2023-01-23T02:15:36;5.75;;;3.67;;
48524;SDS011;34316;51.514;-0.178;2023-01-23T02:17:38;6.18;;;3.95;;
48524;SDS011;34316;51.514;-0.178;2023-01-23T02:19:47;5.65;;;4.03;;
48524;SDS011;34316;51.514;-0.178;2023-01-23T02:22:03;8.52;;;4.32;;
48524;SDS011;34316;51.514;-0.178;2023-01-23T02:24:35;7.75;;;3.50;;
48524;SDS011;34316;51.514;-0.178;2023-01-23T02:26:37;5.95;;;3.53;;
48524;SDS011;34316;51.514;-0.178;2023-01-23T02:28:42;5.13;;;3.55;;
48524;SDS011;34316;51.514;-0.178;2023-01-23T02:30:45;7.38;;;3.80;;
48524;SDS011;34316;51.514;-0.178;2023-01-23T02:32:47;5.90;;;3.45;;
48524;SDS011;34316;51.514;-0.178;2023-01-23T02:34:50;5.63;;;3.67;;
48524;SDS011;34316;51.514;-0.178;2023-01-23T02:36:52;7.63;;;3.50;;
48524;SDS011;34316;51.514;-0.178;2023-01-23T02:41:09;7.28;;;3.85;;
48524;SDS011;34316;51.514;-0.178;2023-01-23T02:43:13;6.30;;;3.75;;
48524;SDS011;34316;51.514;-0.178;2023-01-23T02:45:16;5.65;;;3.72;;
48524;SDS011;34316;51.514;-0.178;2023-01-23T02:47:18;8.88;;;4.07;;
48524;SDS011;34316;51.514;-0.178;2023-01-23T02:49:20;5.82;;;3.88;;
48524;SDS011;34316;51.514;-0.178;2023-01-23T02:51:22;7.82;;;3.45;;
48524;SDS011;34316;51.514;-0.178;2023-01-23T02:53:24;4.88;;;3.47;;
48524;SDS011;34316;51.514;-0.178;2023-01-23T02:55:27;5.72;;;3.70;;
48524;SDS011;34316;51.514;-0.178;2023-01-23T02:57:33;4.88;;;3.45;;
48524;SDS011;34316;51.514;-0.178;2023-01-23T02:59:35;5.75;;;4.10;;
48524;SDS011;34316;51.514;-0.178;2023-01-23T03:01:55;5.43;;;4.18;;
48524;SDS011;34316;51.514;-0.178;2023-01-23T03:03:57;5.00;;;3.60;;
48524;SDS011;34316;51.514;-0.178;2023-01-23T03:06:04;5.60;;;3.63;;
48524;SDS011;34316;51.514;-0.178;2023-01-23T03:08:06;6.68;;;3.60;;
48524;SDS011;34316;51.514;-0.178;2023-01-23T03:10:08;5.32;;;3.05;;
48524;SDS011;34316;51.514;-0.178;2023-01-23T03:12:10;6.45;;;3.40;;
48524;SDS011;34316;51.514;-0.178;2023-01-23T03:14:13;4.80;;;3.50;;
48524;SDS011;34316;51.514;-0.178;2023-01-23T03:16:17;7.28;;;3.83;;
48524;SDS011;34316;51.514;-0.178;2023-01-23T03:18:18;4.00;;;3.03;;
48524;SDS011;34316;51.514;-0.178;2023-01-23T03:20:20;4.05;;;2.90;;
48524;SDS011;34316;51.514;-0.178;2023-01-23T03:22:24;6.50;;;3.47;;
48524;SDS011;34316;51.514;-0.178;2023-01-23T03:24:26;4.97;;;3.30;;
48524;SDS011;34316;51.514;-0.178;2023-01-23T03:26:28;6.28;;;3.55;;
48524;SDS011;34316;51.514;-0.178;2023-01-23T03:28:30;5.85;;;3.42;;
48524;SDS011;34316;51.514;-0.178;2023-01-23T03:31:03;4.45;;;3.08;;
48524;SDS011;34316;51.514;-0.178;2023-01-23T03:33:06;5.25;;;3.17;;
48524;SDS011;34316;51.514;-0.178;2023-01-23T03:35:08;5.47;;;3.42;;
48524;SDS011;34316;51.514;-0.178;2023-01-23T03:37:10;7.68;;;4.78;;
48524;SDS011;34316;51.514;-0.178;2023-01-23T03:39:13;6.40;;;3.40;;
48524;SDS011;34316;51.514;-0.178;2023-01-23T03:41:33;6.15;;;3.40;;
48524;SDS011;34316;51.514;-0.178;2023-01-23T03:43:35;4.75;;;2.97;;
48524;SDS011;34316;51.514;-0.178;2023-01-23T03:45:36;6.97;;;3.67;;
48524;SDS011;34316;51.514;-0.178;2023-01-23T03:47:38;8.13;;;3.55;;
48524;SDS011;34316;51.514;-0.178;2023-01-23T03:49:40;4.80;;;3.15;;
48524;SDS011;34316;51.514;-0.178;2023-01-23T03:51:41;5.70;;;3.75;;
48524;SDS011;34316;51.514;-0.178;2023-01-23T03:53:43;5.15;;;3.33;;
48524;SDS011;34316;51.514;-0.178;2023-01-23T03:55:45;5.38;;;3.65;;
48524;SDS011;34316;51.514;-0.178;2023-01-23T03:57:47;8.57;;;3.30;;
48524;SDS011;34316;51.514;-0.178;2023-01-23T03:59:49;6.85;;;3.28;;
48524;SDS011;34316;51.514;-0.178;2023-01-23T04:01:50;5.50;;;3.35;;
48524;SDS011;34316;51.514;-0.178;2023-01-23T04:03:52;4.70;;;3.38;;
48524;SDS011;34316;51.514;-0.178;2023-01-23T04:05:54;5.43;;;3.17;;
48524;SDS011;34316;51.514;-0.178;2023-01-23T04:07:57;4.70;;;3.10;;
48524;SDS011;34316;51.514;-0.178;2023-01-23T04:09:59;6.00;;;3.42;;
48524;SDS011;34316;51.514;-0.178;2023-01-23T04:12:01;5.68;;;3.38;;
48524;SDS011;34316;51.514;-0.178;2023-01-23T04:14:02;7.50;;;4.05;;
48524;SDS011;34316;51.514;-0.178;2023-01-23T04:16:04;5.05;;;3.50;;
48524;SDS011;34316;51.514;-0.178;2023-01-23T04:18:06;6.20;;;4.22;;
48524;SDS011;34316;51.514;-0.178;2023-01-23T04:20:09;6.30;;;3.97;;
48524;SDS011;34316;51.514;-0.178;2023-01-23T04:22:11;5.45;;;3.60;;
48524;SDS011;34316;51.514;-0.178;2023-01-23T04:24:13;6.80;;;4.47;;
48524;SDS011;34316;51.514;-0.178;2023-01-23T04:26:16;8.20;;;4.78;;
48524;SDS011;34316;51.514;-0.178;2023-01-23T04:28:17;6.35;;;3.78;;
48524;SDS011;34316;51.514;-0.178;2023-01-23T04:30:19;7.28;;;3.80;;
48524;SDS011;34316;51.514;-0.178;2023-01-23T04:32:21;6.07;;;3.65;;
48524;SDS011;34316;51.514;-0.178;2023-01-23T04:34:23;6.70;;;4.25;;
48524;SDS011;34316;51.514;-0.178;2023-01-23T04:36:24;7.38;;;3.83;;
48524;SDS011;34316;51.514;-0.178;2023-01-23T04:38:26;4.78;;;3.67;;
48524;SDS011;34316;51.514;-0.178;2023-01-23T04:40:29;5.70;;;3.42;;
48524;SDS011;34316;51.514;-0.178;2023-01-23T04:42:31;4.40;;;3.10;;
48524;SDS011;34316;51.514;-0.178;2023-01-23T04:44:32;4.38;;;2.95;;
48524;SDS011;34316;51.514;-0.178;2023-01-23T04:46:34;5.53;;;3.55;;
48524;SDS011;34316;51.514;-0.178;2023-01-23T04:48:35;5.05;;;3.38;;
48524;SDS011;34316;51.514;-0.178;2023-01-23T04:50:37;4.43;;;3.00;;
48524;SDS011;34316;51.514;-0.178;2023-01-23T04:52:39;4.03;;;2.80;;
48524;SDS011;34316;51.514;-0.178;2023-01-23T04:54:41;5.45;;;3.33;;
48524;SDS011;34316;51.514;-0.178;2023-01-23T04:56:43;4.38;;;2.88;;
48524;SDS011;34316;51.514;-0.178;2023-01-23T04:59:03;4.80;;;3.13;;
48524;SDS011;34316;51.514;-0.178;2023-01-23T05:01:06;4.40;;;3.00;;
48524;SDS011;34316;51.514;-0.178;2023-01-23T05:03:08;4.25;;;2.80;;
48524;SDS011;34316;51.514;-0.178;2023-01-23T05:05:10;6.00;;;3.17;;
48524;SDS011;34316;51.514;-0.178;2023-01-23T05:07:12;4.10;;;2.72;;
48524;SDS011;34316;51.514;-0.178;2023-01-23T05:09:14;6.45;;;3.13;;
48524;SDS011;34316;51.514;-0.178;2023-01-23T05:11:16;4.68;;;2.83;;
48524;SDS011;34316;51.514;-0.178;2023-01-23T05:13:17;6.18;;;3.67;;
48524;SDS011;34316;51.514;-0.178;2023-01-23T05:15:19;10.15;;;3.90;;
48524;SDS011;34316;51.514;-0.178;2023-01-23T05:17:21;11.73;;;3.80;;
48524;SDS011;34316;51.514;-0.178;2023-01-23T05:19:23;6.25;;;3.70;;
48524;SDS011;34316;51.514;-0.178;2023-01-23T05:21:25;7.10;;;3.90;;
48524;SDS011;34316;51.514;-0.178;2023-01-23T05:23:26;6.47;;;4.07;;
48524;SDS011;34316;51.514;-0.178;2023-01-23T05:25:28;6.00;;;3.50;;
48524;SDS011;34316;51.514;-0.178;2023-01-23T05:27:30;4.95;;;3.53;;
48524;SDS011;34316;51.514;-0.178;2023-01-23T05:29:31;7.22;;;3.92;;
48524;SDS011;34316;51.514;-0.178;2023-01-23T05:31:33;6.53;;;3.53;;
48524;SDS011;34316;51.514;-0.178;2023-01-23T05:33:35;5.97;;;3.45;;
48524;SDS011;34316;51.514;-0.178;2023-01-23T05:35:39;5.60;;;3.35;;
48524;SDS011;34316;51.514;-0.178;2023-01-23T05:37:41;5.90;;;3.28;;
48524;SDS011;34316;51.514;-0.178;2023-01-23T05:39:43;6.93;;;4.53;;
48524;SDS011;34316;51.514;-0.178;2023-01-23T05:41:44;5.75;;;3.88;;
48524;SDS011;34316;51.514;-0.178;2023-01-23T05:43:46;4.85;;;3.60;;
48524;SDS011;34316;51.514;-0.178;2023-01-23T05:45:50;4.72;;;3.03;;
48524;SDS011;34316;51.514;-0.178;2023-01-23T05:47:52;4.43;;;3.15;;
48524;SDS011;34316;51.514;-0.178;2023-01-23T05:49:56;5.45;;;3.38;;
48524;SDS011;34316;51.514;-0.178;2023-01-23T05:51:58;6.57;;;3.10;;
48524;SDS011;34316;51.514;-0.178;2023-01-23T05:54:00;4.72;;;3.25;;
48524;SDS011;34316;51.514;-0.178;2023-01-23T05:56:06;5.22;;;3.28;;
48524;SDS011;34316;51.514;-0.178;2023-01-23T05:58:08;7.63;;;3.88;;
48524;SDS011;34316;51.514;-0.178;2023-01-23T06:00:10;5.45;;;2.83;;
48524;SDS011;34316;51.514;-0.178;2023-01-23T06:02:13;4.13;;;2.88;;
48524;SDS011;34316;51.514;-0.178;2023-01-23T06:04:15;4.40;;;2.83;;
48524;SDS011;34316;51.514;-0.178;2023-01-23T06:06:16;4.18;;;2.72;;
48524;SDS011;34316;51.514;-0.178;2023-01-23T06:08:18;6.75;;;3.33;;
48524;SDS011;34316;51.514;-0.178;2023-01-23T06:10:20;4.57;;;2.85;;
48524;SDS011;34316;51.514;-0.178;2023-01-23T06:12:22;5.90;;;3.30;;
48524;SDS011;34316;51.514;-0.178;2023-01-23T06:14:24;4.25;;;2.80;;
48524;SDS011;34316;51.514;-0.178;2023-01-23T06:16:25;8.73;;;2.90;;
48524;SDS011;34316;51.514;-0.178;2023-01-23T06:18:27;4.47;;;3.20;;
48524;SDS011;34316;51.514;-0.178;2023-01-23T06:20:29;6.60;;;3.30;;
48524;SDS011;34316;51.514;-0.178;2023-01-23T06:22:31;5.78;;;2.92;;
48524;SDS011;34316;51.514;-0.178;2023-01-23T06:24:32;5.25;;;3.13;;
48524;SDS011;34316;51.514;-0.178;2023-01-23T06:26:34;4.18;;;2.80;;
48524;SDS011;34316;51.514;-0.178;2023-01-23T06:28:36;4.68;;;2.65;;
48524;SDS011;34316;51.514;-0.178;2023-01-23T06:30:38;3.67;;;2.63;;
48524;SDS011;34316;51.514;-0.178;2023-01-23T06:32:39;3.83;;;2.42;;
48524;SDS011;34316;51.514;-0.178;2023-01-23T06:34:41;4.05;;;2.83;;
48524;SDS011;34316;51.514;-0.178;2023-01-23T06:36:43;6.82;;;2.80;;
48524;SDS011;34316;51.514;-0.178;2023-01-23T06:38:46;3.95;;;2.80;;
48524;SDS011;34316;51.514;-0.178;2023-01-23T06:40:48;4.55;;;2.83;;
48524;SDS011;34316;51.514;-0.178;2023-01-23T06:42:50;4.65;;;3.20;;
48524;SDS011;34316;51.514;-0.178;2023-01-23T06:44:54;5.35;;;3.15;;
48524;SDS011;34316;51.514;-0.178;2023-01-23T06:46:56;5.10;;;2.72;;
48524;SDS011;34316;51.514;-0.178;2023-01-23T06:48:58;5.38;;;3.10;;
48524;SDS011;34316;51.514;-0.178;2023-01-23T06:51:00;4.32;;;3.22;;
48524;SDS011;34316;51.514;-0.178;2023-01-23T06:53:02;6.68;;;3.40;;
48524;SDS011;34316;51.514;-0.178;2023-01-23T06:55:05;6.30;;;3.57;;
48524;SDS011;34316;51.514;-0.178;2023-01-23T06:57:07;9.10;;;3.83;;
48524;SDS011;34316;51.514;-0.178;2023-01-23T06:59:09;6.10;;;4.13;;
48524;SDS011;34316;51.514;-0.178;2023-01-23T07:01:12;6.85;;;3.60;;
48524;SDS011;34316;51.514;-0.178;2023-01-23T07:03:16;6.63;;;4.15;;
48524;SDS011;34316;51.514;-0.178;2023-01-23T07:05:18;10.98;;;4.38;;
48524;SDS011;34316;51.514;-0.178;2023-01-23T07:07:20;6.05;;;4.13;;
48524;SDS011;34316;51.514;-0.178;2023-01-23T07:09:22;9.07;;;4.93;;
48524;SDS011;34316;51.514;-0.178;2023-01-23T07:11:23;8.65;;;5.40;;
48524;SDS011;34316;51.514;-0.178;2023-01-23T07:13:25;10.25;;;5.72;;
48524;SDS011;34316;51.514;-0.178;2023-01-23T07:15:27;10.18;;;5.32;;
48524;SDS011;34316;51.514;-0.178;2023-01-23T07:17:29;7.90;;;5.70;;
48524;SDS011;34316;51.514;-0.178;2023-01-23T07:19:30;7.22;;;5.07;;
48524;SDS011;34316;51.514;-0.178;2023-01-23T07:21:32;9.93;;;6.45;;
48524;SDS011;34316;51.514;-0.178;2023-01-23T07:23:34;7.95;;;5.57;;
48524;SDS011;34316;51.514;-0.178;2023-01-23T07:25:36;7.80;;;5.43;;
48524;SDS011;34316;51.514;-0.178;2023-01-23T07:27:38;8.15;;;5.72;;
48524;SDS011;34316;51.514;-0.178;2023-01-23T07:29:40;8.82;;;5.57;;
48524;SDS011;34316;51.514;-0.178;2023-01-23T07:31:43;9.47;;;6.57;;
48524;SDS011;34316;51.514;-0.178;2023-01-23T07:33:44;12.95;;;6.82;;
48524;SDS011;34316;51.514;-0.178;2023-01-23T07:35:46;13.10;;;7.88;;
48524;SDS011;34316;51.514;-0.178;2023-01-23T07:37:48;15.20;;;8.43;;
48524;SDS011;34316;51.514;-0.178;2023-01-23T07:39:50;12.40;;;7.47;;
48524;SDS011;34316;51.514;-0.178;2023-01-23T07:41:51;11.80;;;7.43;;
48524;SDS011;34316;51.514;-0.178;2023-01-23T07:43:53;15.80;;;7.90;;
48524;SDS011;34316;51.514;-0.178;2023-01-23T07:45:58;14.40;;;7.95;;
48524;SDS011;34316;51.514;-0.178;2023-01-23T07:48:00;12.85;;;7.70;;
48524;SDS011;34316;51.514;-0.178;2023-01-23T07:50:02;14.70;;;8.48;;
48524;SDS011;34316;51.514;-0.178;2023-01-23T07:52:04;14.00;;;8.73;;
48524;SDS011;34316;51.514;-0.178;2023-01-23T07:54:05;13.07;;;8.25;;
48524;SDS011;34316;51.514;-0.178;2023-01-23T07:56:07;14.57;;;8.63;;
48524;SDS011;34316;51.514;-0.178;2023-01-23T07:58:09;14.00;;;7.65;;
48524;SDS011;34316;51.514;-0.178;2023-01-23T08:00:11;13.80;;;8.75;;
48524;SDS011;34316;51.514;-0.178;2023-01-23T08:02:13;14.77;;;9.35;;
48524;SDS011;34316;51.514;-0.178;2023-01-23T08:04:14;12.98;;;7.80;;
48524;SDS011;34316;51.514;-0.178;2023-01-23T08:06:16;10.48;;;6.53;;
48524;SDS011;34316;51.514;-0.178;2023-01-23T08:08:18;12.02;;;7.82;;
48524;SDS011;34316;51.514;-0.178;2023-01-23T08:10:19;12.23;;;7.15;;
48524;SDS011;34316;51.514;-0.178;2023-01-23T08:12:21;13.02;;;7.32;;
48524;SDS011;34316;51.514;-0.178;2023-01-23T08:14:23;11.45;;;7.35;;
48524;SDS011;34316;51.514;-0.178;2023-01-23T08:16:25;12.35;;;6.93;;
48524;SDS011;34316;51.514;-0.178;2023-01-23T08:18:28;12.05;;;6.78;;
48524;SDS011;34316;51.514;-0.178;2023-01-23T08:20:30;9.90;;;6.40;;
48524;SDS011;34316;51.514;-0.178;2023-01-23T08:22:32;9.65;;;6.50;;
48524;SDS011;34316;51.514;-0.178;2023-01-23T08:24:34;11.35;;;5.57;;
48524;SDS011;34316;51.514;-0.178;2023-01-23T08:26:36;10.20;;;5.47;;
48524;SDS011;34316;51.514;-0.178;2023-01-23T08:28:37;10.48;;;6.20;;
48524;SDS011;34316;51.514;-0.178;2023-01-23T08:30:39;9.35;;;6.30;;
48524;SDS011;34316;51.514;-0.178;2023-01-23T08:32:41;12.75;;;7.50;;
48524;SDS011;34316;51.514;-0.178;2023-01-23T08:34:43;10.02;;;5.72;;
48524;SDS011;34316;51.514;-0.178;2023-01-23T08:36:44;8.98;;;5.88;;
48524;SDS011;34316;51.514;-0.178;2023-01-23T08:38:46;8.88;;;5.20;;
48524;SDS011;34316;51.514;-0.178;2023-01-23T08:40:48;9.95;;;6.07;;
48524;SDS011;34316;51.514;-0.178;2023-01-23T08:42:52;7.65;;;4.85;;
48524;SDS011;34316;51.514;-0.178;2023-01-23T08:44:55;8.65;;;5.05;;
48524;SDS011;34316;51.514;-0.178;2023-01-23T08:46:56;7.82;;;5.10;;
48524;SDS011;34316;51.514;-0.178;2023-01-23T08:48:58;9.77;;;5.28;;
48524;SDS011;34316;51.514;-0.178;2023-01-23T08:51:04;8.40;;;5.10;;
48524;SDS011;34316;51.514;-0.178;2023-01-23T08:53:08;7.55;;;5.00;;
48524;SDS011;34316;51.514;-0.178;2023-01-23T08:55:09;9.05;;;5.15;;
48524;SDS011;34316;51.514;-0.178;2023-01-23T08:57:12;8.27;;;4.40;;
48524;SDS011;34316;51.514;-0.178;2023-01-23T08:59:14;23.83;;;12.38;;
48524;SDS011;34316;51.514;-0.178;2023-01-23T09:01:20;8.57;;;5.18;;
48524;SDS011;34316;51.514;-0.178;2023-01-23T09:03:23;7.28;;;4.95;;
48524;SDS011;34316;51.514;-0.178;2023-01-23T09:05:26;7.88;;;5.00;;
48524;SDS011;34316;51.514;-0.178;2023-01-23T09:07:29;7.82;;;5.10;;
48524;SDS011;34316;51.514;-0.178;2023-01-23T09:09:31;7.75;;;4.82;;
48524;SDS011;34316;51.514;-0.178;2023-01-23T09:11:32;11.60;;;5.25;;
48524;SDS011;34316;51.514;-0.178;2023-01-23T09:13:34;7.80;;;4.82;;
48524;SDS011;34316;51.514;-0.178;2023-01-23T09:15:36;8.88;;;4.88;;
48524;SDS011;34316;51.514;-0.178;2023-01-23T09:17:39;9.70;;;4.80;;
48524;SDS011;34316;51.514;-0.178;2023-01-23T09:19:41;10.07;;;4.43;;
48524;SDS011;34316;51.514;-0.178;2023-01-23T09:21:42;9.18;;;4.55;;
48524;SDS011;34316;51.514;-0.178;2023-01-23T09:23:44;8.38;;;4.78;;
48524;SDS011;34316;51.514;-0.178;2023-01-23T09:25:46;11.85;;;5.47;;
48524;SDS011;34316;51.514;-0.178;2023-01-23T09:27:48;9.20;;;5.53;;
48524;SDS011;34316;51.514;-0.178;2023-01-23T09:29:49;6.88;;;4.38;;
48524;SDS011;34316;51.514;-0.178;2023-01-23T09:31:51;7.03;;;3.67;;
48524;SDS011;34316;51.514;-0.178;2023-01-23T09:33:53;23.20;;;12.25;;
48524;SDS011;34316;51.514;-0.178;2023-01-23T09:35:54;7.78;;;4.68;;
48524;SDS011;34316;51.514;-0.178;2023-01-23T09:37:57;10.73;;;4.97;;
48524;SDS011;34316;51.514;-0.178;2023-01-23T09:40:02;5.88;;;3.70;;
48524;SDS011;34316;51.514;-0.178;2023-01-23T09:42:04;8.00;;;4.55;;
48524;SDS011;34316;51.514;-0.178;2023-01-23T09:46:18;7.78;;;4.55;;
48524;SDS011;34316;51.514;-0.178;2023-01-23T09:50:52;8.55;;;4.80;;
48524;SDS011;34316;51.514;-0.178;2023-01-23T09:52:59;10.13;;;5.32;;
48524;SDS011;34316;51.514;-0.178;2023-01-23T09:55:15;7.93;;;4.80;;
48524;SDS011;34316;51.514;-0.178;2023-01-23T09:57:20;8.82;;;4.90;;
48524;SDS011;34316;51.514;-0.178;2023-01-23T09:59:36;8.02;;;4.70;;
48524;SDS011;34316;51.514;-0.178;2023-01-23T10:01:58;8.77;;;5.38;;
48524;SDS011;34316;51.514;-0.178;2023-01-23T10:04:00;8.40;;;4.95;;
48524;SDS011;34316;51.514;-0.178;2023-01-23T10:10:52;8.23;;;4.47;;
48524;SDS011;34316;51.514;-0.178;2023-01-23T10:13:09;8.13;;;4.55;;
48524;SDS011;34316;51.514;-0.178;2023-01-23T10:15:23;10.45;;;5.38;;
48524;SDS011;34316;51.514;-0.178;2023-01-23T10:17:56;10.13;;;5.38;;
48524;SDS011;34316;51.514;-0.178;2023-01-23T10:22:36;10.55;;;5.53;;
48524;SDS011;34316;51.514;-0.178;2023-01-23T10:24:52;10.50;;;6.78;;
48524;SDS011;34316;51.514;-0.178;2023-01-23T10:26:58;10.55;;;5.18;;
48524;SDS011;34316;51.514;-0.178;2023-01-23T10:30:06;11.93;;;5.45;;
48524;SDS011;34316;51.514;-0.178;2023-01-23T10:33:44;10.27;;;5.28;;
48524;SDS011;34316;51.514;-0.178;2023-01-23T10:35:50;8.50;;;5.30;;
48524;SDS011;34316;51.514;-0.178;2023-01-23T10:40:14;7.97;;;5.38;;
48524;SDS011;34316;51.514;-0.178;2023-01-23T10:42:18;8.02;;;5.30;;
48524;SDS011;34316;51.514;-0.178;2023-01-23T10:44:22;9.25;;;5.68;;
48524;SDS011;34316;51.514;-0.178;2023-01-23T10:48:46;8.57;;;5.45;;
48524;SDS011;34316;51.514;-0.178;2023-01-23T10:50:49;8.05;;;5.53;;
48524;SDS011;34316;51.514;-0.178;2023-01-23T10:52:51;10.57;;;6.15;;
48524;SDS011;34316;51.514;-0.178;2023-01-23T10:59:37;10.02;;;6.53;;
48524;SDS011;34316;51.514;-0.178;2023-01-23T11:04:20;16.55;;;6.85;;
48524;SDS011;34316;51.514;-0.178;2023-01-23T11:06:23;10.68;;;7.43;;
48524;SDS011;34316;51.514;-0.178;2023-01-23T11:08:30;11.82;;;7.18;;
48524;SDS011;34316;51.514;-0.178;2023-01-23T11:10:36;11.82;;;7.75;;
48524;SDS011;34316;51.514;-0.178;2023-01-23T11:12:48;10.75;;;7.07;;
48524;SDS011;34316;51.514;-0.178;2023-01-23T11:15:11;13.90;;;7.00;;
48524;SDS011;34316;51.514;-0.178;2023-01-23T11:17:31;11.20;;;7.35;;
48524;SDS011;34316;51.514;-0.178;2023-01-23T11:19:35;12.73;;;7.95;;
48524;SDS011;34316;51.514;-0.178;2023-01-23T11:21:38;12.32;;;7.22;;
48524;SDS011;34316;51.514;-0.178;2023-01-23T11:24:08;11.93;;;7.72;;
48524;SDS011;34316;51.514;-0.178;2023-01-23T11:26:32;12.15;;;7.45;;
48524;SDS011;34316;51.514;-0.178;2023-01-23T11:28:45;11.10;;;8.20;;
48524;SDS011;34316;51.514;-0.178;2023-01-23T11:32:58;11.10;;;7.60;;
48524;SDS011;34316;51.514;-0.178;2023-01-23T11:35:08;11.90;;;7.63;;
48524;SDS011;34316;51.514;-0.178;2023-01-23T11:37:20;10.45;;;7.35;;
48524;SDS011;34316;51.514;-0.178;2023-01-23T11:41:38;14.68;;;8.45;;
48524;SDS011;34316;51.514;-0.178;2023-01-23T11:43:40;11.63;;;7.57;;
48524;SDS011;34316;51.514;-0.178;2023-01-23T11:51:15;11.23;;;7.35;;
48524;SDS011;34316;51.514;-0.178;2023-01-23T11:55:50;12.02;;;6.60;;
48524;SDS011;34316;51.514;-0.178;2023-01-23T12:00:37;10.45;;;7.10;;
48524;SDS011;34316;51.514;-0.178;2023-01-23T12:05:06;9.68;;;6.68;;
48524;SDS011;34316;51.514;-0.178;2023-01-23T12:07:19;10.10;;;6.88;;
48524;SDS011;34316;51.514;-0.178;2023-01-23T12:09:21;10.75;;;6.57;;
48524;SDS011;34316;51.514;-0.178;2023-01-23T12:11:38;13.60;;;6.78;;
48524;SDS011;34316;51.514;-0.178;2023-01-23T12:20:47;10.27;;;7.38;;
48524;SDS011;34316;51.514;-0.178;2023-01-23T12:29:52;9.48;;;6.53;;
48524;SDS011;34316;51.514;-0.178;2023-01-23T12:35:16;8.82;;;6.50;;
48524;SDS011;34316;51.514;-0.178;2023-01-23T12:42:01;11.43;;;7.28;;
48524;SDS011;34316;51.514;-0.178;2023-01-23T12:44:13;11.02;;;7.38;;
48524;SDS011;34316;51.514;-0.178;2023-01-23T12:46:18;9.82;;;7.05;;
48524;SDS011;34316;51.514;-0.178;2023-01-23T12:48:49;12.00;;;7.38;;
48524;SDS011;34316;51.514;-0.178;2023-01-23T12:51:11;11.40;;;7.07;;
48524;SDS011;34316;51.514;-0.178;2023-01-23T12:53:16;10.70;;;7.15;;
48524;SDS011;34316;51.514;-0.178;2023-01-23T12:55:21;9.95;;;7.03;;
48524;SDS011;34316;51.514;-0.178;2023-01-23T12:57:25;8.70;;;6.45;;
48524;SDS011;34316;51.514;-0.178;2023-01-23T13:00:02;10.48;;;7.50;;
48524;SDS011;34316;51.514;-0.178;2023-01-23T13:09:23;10.45;;;6.60;;
48524;SDS011;34316;51.514;-0.178;2023-01-23T13:17:14;12.48;;;7.30;;
48524;SDS011;34316;51.514;-0.178;2023-01-23T13:19:39;10.60;;;7.60;;
48524;SDS011;34316;51.514;-0.178;2023-01-23T13:22:11;11.27;;;7.45;;
48524;SDS011;34316;51.514;-0.178;2023-01-23T13:24:28;11.00;;;7.95;;
48524;SDS011;34316;51.514;-0.178;2023-01-23T13:26:52;11.93;;;7.90;;
48524;SDS011;34316;51.514;-0.178;2023-01-23T13:28:55;12.80;;;8.07;;
48524;SDS011;34316;51.514;-0.178;2023-01-23T13:30:59;12.05;;;7.93;;
48524;SDS011;34316;51.514;-0.178;2023-01-23T13:35:37;10.85;;;7.07;;
48524;SDS011;34316;51.514;-0.178;2023-01-23T13:37:47;12.65;;;8.35;;
48524;SDS011;34316;51.514;-0.178;2023-01-23T13:40:01;11.60;;;8.30;;
48524;SDS011;34316;51.514;-0.178;2023-01-23T13:42:38;11.02;;;7.50;;
48524;SDS011;34316;51.514;-0.178;2023-01-23T13:47:26;12.80;;;8.30;;
48524;SDS011;34316;51.514;-0.178;2023-01-23T13:50:06;12.48;;;8.18;;